Terminal Aerodrome Forecast
Issued by NWS

Home | Current Version | Previous Version | Text Only | Print | Product List | Glossary On
Versions: 1 2 3 4 5 6 7 8 9 10 11 12 13 14 15 16 17 18 19 20 21 22 23 24 25 26 27 28
000
FTUS46 KLOX 201907 AAA
TAFVNY
TAF AMD
KVNY 201907Z 2019/2118 14012G22KT 2SM RA BR VCTS SCT008CB OVC015
     FM202030 15020G30KT 1SM RA BR VCTS BKN008CB OVC015
     FM202200 22012G20KT 4SM -SHRA BR VCTS BKN015CB OVC025
     FM210300 27010KT P6SM -SHRA BKN015 OVC035
     FM211000 35012KT P6SM SCT050 BKN120=

USA.gov is the U.S. government's official web portal to all federal, state and local government web resources and services.